Time;durP1;ratioP1;P1;durP2;ratioP2;P2;SDS_P1;SDS_P2;PMS_P1;PMS_P2;Temp;Humidity;BMP_temperature;BMP_pressure;BME280_temperature;BME280_humidity;BME280_pressure;Samples;Min_cycle;Max_cycle;Signal;HPM_P1;HPM_P2
2021/12/06 00:01:23;;;;;;;0.95;0.70;;;7.30;63.60;;;;;;4956548;28;20184;-64
2021/12/06 00:04:00;;;;;;;0.73;0.57;;;7.30;64.00;;;;;;4956675;28;20207;-67
2021/12/06 00:06:27;;;;;;;0.80;0.80;;;7.30;63.40;;;;;;4956936;28;20553;-59
2021/12/06 00:08:53;;;;;;;1.23;0.60;;;7.20;63.70;;;;;;4956313;28;20231;-59
2021/12/06 00:11:19;;;;;;;0.70;0.45;;;7.20;64.10;;;;;;4956535;28;20185;-69
2021/12/06 00:13:47;;;;;;;0.52;0.47;;;7.10;64.00;;;;;;4957224;28;20200;-66
2021/12/06 00:16:18;;;;;;;0.57;0.50;;;7.10;64.30;;;;;;4960441;28;20177;-60
2021/12/06 00:18:46;;;;;;;1.15;0.47;;;7.20;64.80;;;;;;4957265;28;20208;-59
2021/12/06 00:21:12;;;;;;;0.77;0.75;;;7.30;64.10;;;;;;4957469;28;20187;-59
2021/12/06 00:23:39;;;;;;;0.85;0.50;;;7.40;63.40;;;;;;4957466;28;20696;-59
2021/12/06 00:26:07;;;;;;;0.50;0.45;;;7.30;63.30;;;;;;4957636;28;20224;-59
2021/12/06 00:28:33;;;;;;;0.63;0.47;;;7.30;64.60;;;;;;4955875;28;20688;-64
2021/12/06 00:30:59;;;;;;;0.60;0.60;;;7.30;63.70;;;;;;4955822;28;20584;-58
2021/12/06 00:33:25;;;;;;;3.17;0.57;;;7.40;63.40;;;;;;4956304;28;20203;-59
2021/12/06 00:35:51;;;;;;;0.60;0.50;;;7.30;63.10;;;;;;4956104;28;20179;-62
2021/12/06 00:38:18;;;;;;;0.80;0.60;;;7.10;62.80;;;;;;4956199;28;20204;-60
2021/12/06 00:40:47;;;;;;;0.57;0.50;;;7.20;63.60;;;;;;4956069;28;20181;-66
2021/12/06 00:43:14;;;;;;;1.38;0.55;;;7.10;63.80;;;;;;4955928;28;20181;-59
2021/12/06 00:45:40;;;;;;;0.35;0.35;;;7.20;63.80;;;;;;4956163;28;20226;-58
2021/12/06 00:48:06;;;;;;;0.68;0.68;;;7.30;63.10;;;;;;4955778;28;20699;-58
2021/12/06 00:50:39;;;;;;;0.77;0.52;;;7.30;63.10;;;;;;4955867;28;20539;-58
2021/12/06 00:53:05;;;;;;;0.57;0.52;;;7.40;62.90;;;;;;4955639;28;20188;-59
2021/12/06 00:55:32;;;;;;;0.77;0.60;;;7.30;62.50;;;;;;4955510;28;20173;-65
2021/12/06 00:57:58;;;;;;;0.45;0.43;;;7.20;62.90;;;;;;4954072;29;20201;-59
2021/12/06 01:00:30;;;;;;;0.88;0.30;;;7.20;63.20;;;;;;4955515;28;20177;-62
2021/12/06 01:02:56;;;;;;;0.65;0.60;;;7.10;62.90;;;;;;4955315;28;20208;-59
2021/12/06 01:05:24;;;;;;;0.65;0.60;;;7.20;63.20;;;;;;4955227;28;20215;-60
2021/12/06 01:07:56;;;;;;;0.70;0.70;;;7.20;63.10;;;;;;4955275;28;20208;-60
2021/12/06 01:10:24;;;;;;;1.70;0.60;;;7.20;62.80;;;;;;4956090;28;20735;-59
2021/12/06 01:12:50;;;;;;;0.82;0.63;;;7.20;62.50;;;;;;4955382;29;20264;-59
2021/12/06 01:15:15;;;;;;;0.98;0.50;;;7.10;62.60;;;;;;4955330;29;20216;-59
2021/12/06 01:17:41;;;;;;;1.30;0.43;;;7.10;62.70;;;;;;4955313;29;20177;-60
2021/12/06 01:20:11;;;;;;;1.23;0.50;;;7.20;62.50;;;;;;4955295;28;20205;-60
2021/12/06 01:22:52;;;;;;;0.82;0.50;;;7.20;61.30;;;;;;4955078;28;20176;-60
2021/12/06 01:41:25;;;;;;;1.00;0.70;;;7.00;62.70;;;;;;4954480;28;20347;-62
2021/12/06 01:44:10;;;;;;;1.75;0.50;;;6.90;64.00;;;;;;4954959;28;20255;-58
2021/12/06 01:46:51;;;;;;;0.60;0.50;;;6.90;62.90;;;;;;4955126;28;20204;-59
2021/12/06 01:49:19;;;;;;;0.80;0.40;;;6.80;63.10;;;;;;4954750;28;20201;-61
2021/12/06 01:51:46;;;;;;;1.95;0.50;;;6.90;62.90;;;;;;4954869;28;20185;-58
2021/12/06 01:54:14;;;;;;;0.73;0.65;;;6.90;62.90;;;;;;4954558;28;20307;-58
2021/12/06 01:56:40;;;;;;;0.50;0.47;;;6.90;63.00;;;;;;4954676;28;20176;-58
2021/12/06 01:59:07;;;;;;;0.40;0.40;;;7.10;62.80;;;;;;4954639;28;20200;-58
2021/12/06 02:01:33;;;;;;;0.60;0.55;;;7.10;62.00;;;;;;4954752;28;20180;-60
2021/12/06 02:03:59;;;;;;;1.00;0.57;;;7.00;62.00;;;;;;4954865;28;20593;-58
2021/12/06 02:06:25;;;;;;;0.40;0.40;;;7.10;63.00;;;;;;4954490;28;20216;-60
2021/12/06 02:08:51;;;;;;;0.57;0.40;;;7.20;62.40;;;;;;4953143;29;20600;-59
2021/12/06 02:11:17;;;;;;;1.50;0.60;;;7.20;62.20;;;;;;4954743;28;20597;-58
2021/12/06 02:13:53;;;;;;;1.40;1.00;;;7.10;62.20;;;;;;4954803;28;20177;-59
2021/12/06 02:16:26;;;;;;;0.50;0.50;;;6.90;62.40;;;;;;4954546;28;20200;-59
2021/12/06 02:19:01;;;;;;;0.43;0.43;;;7.00;62.30;;;;;;4954627;28;20684;-64
2021/12/06 02:21:30;;;;;;;0.90;0.30;;;7.00;62.50;;;;;;4954765;28;20640;-60
2021/12/06 02:23:59;;;;;;;0.47;0.40;;;7.10;61.90;;;;;;4954499;28;20184;-58
2021/12/06 02:26:25;;;;;;;0.43;0.38;;;7.10;61.70;;;;;;4954465;29;20525;-60
2021/12/06 02:28:52;;;;;;;0.43;0.40;;;7.10;61.80;;;;;;4954463;28;20203;-58
2021/12/06 02:31:20;;;;;;;0.88;0.60;;;7.10;61.80;;;;;;4954482;28;20268;-59
2021/12/06 02:33:48;;;;;;;0.43;0.43;;;7.00;61.70;;;;;;4954180;28;20239;-57
2021/12/06 02:36:15;;;;;;;0.65;0.45;;;7.10;61.30;;;;;;4954452;28;20732;-60
2021/12/06 02:38:41;;;;;;;1.80;0.70;;;7.00;61.70;;;;;;4954319;28;20216;-57
2021/12/06 02:41:08;;;;;;;0.60;0.60;;;7.10;61.70;;;;;;4954688;28;20638;-58
2021/12/06 02:43:35;;;;;;;0.70;0.70;;;7.10;61.20;;;;;;4953070;28;20185;-58
2021/12/06 02:46:02;;;;;;;0.50;0.50;;;7.10;61.50;;;;;;4954143;28;20220;-58
2021/12/06 02:48:28;;;;;;;0.50;0.40;;;7.00;61.50;;;;;;4954294;28;20193;-58
2021/12/06 02:50:57;;;;;;;0.45;0.45;;;7.00;61.90;;;;;;4954254;29;20330;-59
2021/12/06 02:53:24;;;;;;;1.13;0.50;;;7.00;62.20;;;;;;4955980;28;20224;-58
2021/12/06 02:55:54;;;;;;;0.47;0.47;;;7.00;62.00;;;;;;4957972;28;20176;-60
2021/12/06 03:01:07;;;;;;;0.50;0.50;;;7.00;62.20;;;;;;4957838;28;20224;-60
2021/12/06 03:03:33;;;;;;;0.63;0.63;;;6.90;62.10;;;;;;4957883;28;20184;-59
2021/12/06 03:05:59;;;;;;;0.50;0.50;;;7.00;61.90;;;;;;4957740;28;20216;-59
2021/12/06 03:08:34;;;;;;;1.52;0.63;;;7.00;62.20;;;;;;4957445;28;20208;-58
2021/12/06 03:11:00;;;;;;;0.60;0.60;;;6.90;62.30;;;;;;4957567;28;20648;-59
2021/12/06 03:13:26;;;;;;;0.50;0.50;;;6.90;62.60;;;;;;4957549;28;20191;-58
2021/12/06 03:15:52;;;;;;;0.98;0.60;;;6.70;62.70;;;;;;4957646;28;20173;-58
2021/12/06 03:18:18;;;;;;;0.73;0.65;;;6.60;63.10;;;;;;4957530;28;20256;-57
2021/12/06 03:20:43;;;;;;;0.60;0.60;;;6.60;64.20;;;;;;4957499;28;20176;-58
2021/12/06 03:23:09;;;;;;;0.60;0.60;;;6.60;63.90;;;;;;4957526;28;20192;-63
2021/12/06 03:25:35;;;;;;;0.60;0.60;;;6.60;64.20;;;;;;4957324;28;20220;-58
2021/12/06 03:28:01;;;;;;;1.77;0.65;;;6.50;64.10;;;;;;4957171;28;20614;-58
2021/12/06 03:30:27;;;;;;;1.73;0.60;;;6.40;64.20;;;;;;4957404;28;20212;-58
2021/12/06 03:32:53;;;;;;;0.60;0.60;;;6.50;63.80;;;;;;4957312;28;20184;-59
2021/12/06 03:35:18;;;;;;;1.58;0.63;;;6.70;63.90;;;;;;4957508;28;20551;-58
2021/12/06 03:37:44;;;;;;;1.05;0.70;;;6.60;64.00;;;;;;4957042;28;20185;-58
2021/12/06 03:40:11;;;;;;;0.60;0.60;;;6.70;63.30;;;;;;4956963;28;20609;-58
2021/12/06 03:42:37;;;;;;;0.60;0.60;;;6.70;63.90;;;;;;4956987;29;20243;-60
2021/12/06 03:45:07;;;;;;;1.08;0.70;;;6.70;63.30;;;;;;4956791;28;20215;-58
2021/12/06 03:47:33;;;;;;;1.20;0.70;;;6.80;62.90;;;;;;4957050;28;20228;-58
2021/12/06 03:49:59;;;;;;;0.55;0.55;;;6.90;62.60;;;;;;4956779;28;20200;-63
2021/12/06 03:52:26;;;;;;;1.02;0.57;;;6.90;62.10;;;;;;4957094;28;20648;-58
2021/12/06 03:54:53;;;;;;;1.13;0.85;;;6.90;62.50;;;;;;4956646;28;20268;-58
2021/12/06 03:57:20;;;;;;;0.60;0.60;;;6.90;62.30;;;;;;4957459;28;20177;-61
2021/12/06 03:59:47;;;;;;;0.60;0.60;;;6.90;62.10;;;;;;4957298;28;20208;-58
2021/12/06 04:02:15;;;;;;;0.70;0.60;;;7.00;62.30;;;;;;4957790;28;20188;-59
2021/12/06 04:04:41;;;;;;;0.93;0.65;;;7.10;61.50;;;;;;4956357;28;20297;-60
2021/12/06 04:07:08;;;;;;;0.45;0.43;;;7.10;61.50;;;;;;4957071;28;20645;-58
2021/12/06 04:09:34;;;;;;;0.50;0.50;;;7.10;62.00;;;;;;4956866;28;20275;-62
2021/12/06 04:12:00;;;;;;;1.80;0.55;;;7.00;62.00;;;;;;4958418;28;20301;-59
2021/12/06 04:14:26;;;;;;;0.70;0.60;;;7.10;61.70;;;;;;4957502;28;20590;-61
2021/12/06 04:16:52;;;;;;;0.70;0.70;;;7.00;61.60;;;;;;4957458;28;20207;-70
2021/12/06 04:19:18;;;;;;;1.17;0.68;;;7.00;61.80;;;;;;4957953;28;20671;-58
2021/12/06 04:21:45;;;;;;;1.33;0.70;;;7.00;62.20;;;;;;4958583;28;20185;-59
2021/12/06 04:24:12;;;;;;;0.75;0.60;;;6.90;61.90;;;;;;4961554;28;20605;-59
2021/12/06 04:26:39;;;;;;;0.60;0.60;;;7.00;61.80;;;;;;4961946;28;20547;-58
2021/12/06 04:29:05;;;;;;;1.65;0.82;;;7.10;61.90;;;;;;4958445;28;20200;-61
2021/12/06 04:31:41;;;;;;;1.05;0.60;;;7.10;61.70;;;;;;4959870;28;20177;-61
2021/12/06 04:34:07;;;;;;;1.23;0.57;;;7.10;61.60;;;;;;4958841;29;20176;-63
2021/12/06 04:36:34;;;;;;;0.63;0.57;;;7.10;61.20;;;;;;4960340;29;20263;-59
2021/12/06 04:39:00;;;;;;;0.75;0.63;;;7.00;61.10;;;;;;4960773;28;20208;-58
2021/12/06 04:41:26;;;;;;;0.60;0.55;;;7.10;61.00;;;;;;4963706;28;20184;-62
2021/12/06 04:43:52;;;;;;;1.75;0.80;;;6.90;61.20;;;;;;4960949;29;20574;-58
2021/12/06 04:46:18;;;;;;;0.70;0.70;;;6.90;62.30;;;;;;4965017;28;20248;-58
2021/12/06 04:48:44;;;;;;;2.25;0.80;;;7.00;62.10;;;;;;4961081;28;20271;-64
2021/12/06 04:51:10;;;;;;;1.27;0.80;;;7.00;61.80;;;;;;4959486;28;20173;-67
2021/12/06 04:53:37;;;;;;;0.70;0.70;;;6.90;62.00;;;;;;4960185;28;20263;-61
2021/12/06 04:56:23;;;;;;;0.88;0.88;;;6.90;62.30;;;;;;4957925;28;20207;-58
2021/12/06 04:59:09;;;;;;;0.73;0.52;;;6.90;62.50;;;;;;4955312;28;20213;-65
2021/12/06 05:01:35;;;;;;;1.10;0.57;;;7.00;62.60;;;;;;4961410;28;20173;-64
2021/12/06 05:04:09;;;;;;;1.02;0.80;;;7.00;61.80;;;;;;4962289;28;20232;-58
2021/12/06 05:06:37;;;;;;;1.75;0.70;;;7.00;62.30;;;;;;4961946;28;20216;-63
2021/12/06 05:09:10;;;;;;;0.70;0.70;;;7.00;61.90;;;;;;4962999;29;20228;-58
2021/12/06 05:11:37;;;;;;;1.35;0.80;;;6.90;62.20;;;;;;4962432;28;20180;-58
2021/12/06 05:14:03;;;;;;;0.68;0.68;;;6.90;62.70;;;;;;4961003;28;20203;-58
2021/12/06 05:16:30;;;;;;;0.82;0.70;;;6.90;62.50;;;;;;4960046;28;20234;-58
2021/12/06 05:18:56;;;;;;;0.73;0.70;;;6.90;62.60;;;;;;4960023;28;20208;-58
2021/12/06 05:21:22;;;;;;;2.15;0.80;;;6.80;62.80;;;;;;4960011;28;20177;-59
2021/12/06 05:23:49;;;;;;;1.17;1.00;;;6.80;62.80;;;;;;4958748;28;20199;-62
2021/12/06 05:26:15;;;;;;;1.20;0.95;;;6.80;62.30;;;;;;4959859;28;20727;-58
2021/12/06 05:28:43;;;;;;;0.73;0.70;;;6.80;62.20;;;;;;4957161;28;20197;-59
2021/12/06 05:31:21;;;;;;;1.75;0.98;;;6.90;62.80;;;;;;4956219;28;20212;-59
2021/12/06 05:33:52;;;;;;;0.80;0.75;;;7.00;62.40;;;;;;4953982;28;20663;-59
2021/12/06 05:36:18;;;;;;;0.98;0.80;;;6.80;62.30;;;;;;4955343;28;20546;-61
2021/12/06 05:38:44;;;;;;;5.07;0.82;;;6.90;62.50;;;;;;4954848;29;20207;-59
2021/12/06 05:41:10;;;;;;;0.88;0.70;;;7.00;62.40;;;;;;4955141;28;20185;-59
2021/12/06 05:43:35;;;;;;;1.52;0.80;;;6.90;62.40;;;;;;4955228;28;20169;-58
2021/12/06 05:46:02;;;;;;;1.92;1.30;;;6.90;61.70;;;;;;4954967;28;20204;-60
2021/12/06 05:48:29;;;;;;;0.93;0.82;;;6.90;62.50;;;;;;4955221;28;20688;-58
2021/12/06 05:50:55;;;;;;;1.20;0.88;;;6.90;62.40;;;;;;4955008;28;20291;-59
2021/12/06 05:53:22;;;;;;;1.58;0.80;;;6.90;62.20;;;;;;4954950;28;20263;-59
2021/12/06 05:55:48;;;;;;;0.90;0.60;;;6.70;61.60;;;;;;4954939;28;20304;-58
2021/12/06 05:58:17;;;;;;;0.80;0.80;;;6.80;62.30;;;;;;4954731;28;20231;-58
2021/12/06 06:00:43;;;;;;;0.77;0.77;;;7.00;61.30;;;;;;4954780;28;20165;-58
2021/12/06 06:03:10;;;;;;;0.80;0.80;;;7.10;61.00;;;;;;4954765;28;20189;-58
2021/12/06 06:05:36;;;;;;;0.70;0.70;;;7.10;60.90;;;;;;4954991;28;20574;-58
2021/12/06 06:08:03;;;;;;;1.60;0.68;;;6.90;60.60;;;;;;4954713;28;20188;-59
2021/12/06 06:10:31;;;;;;;1.33;0.60;;;6.90;59.90;;;;;;4954296;28;20244;-58
2021/12/06 06:13:01;;;;;;;0.88;0.70;;;7.00;60.10;;;;;;4954593;28;20181;-59
2021/12/06 06:15:29;;;;;;;0.70;0.70;;;7.10;59.90;;;;;;4953416;29;20661;-65
2021/12/06 06:17:58;;;;;;;0.60;0.60;;;7.10;59.70;;;;;;4954583;28;20191;-63
2021/12/06 06:20:26;;;;;;;1.40;0.88;;;7.30;59.30;;;;;;4954763;28;20594;-59
2021/12/06 06:22:52;;;;;;;0.60;0.60;;;7.20;58.90;;;;;;4954468;28;20732;-58
2021/12/06 06:25:18;;;;;;;0.93;0.80;;;7.10;59.30;;;;;;4954685;28;20303;-61
2021/12/06 06:27:44;;;;;;;1.05;0.95;;;7.20;59.70;;;;;;4953673;28;20717;-74
2021/12/06 06:30:12;;;;;;;1.48;0.80;;;7.20;59.70;;;;;;4958374;28;20204;-64
2021/12/06 06:32:38;;;;;;;1.42;0.90;;;7.10;59.40;;;;;;4958492;28;20213;-58
2021/12/06 06:35:06;;;;;;;0.88;0.60;;;7.10;60.10;;;;;;4958420;28;20648;-58
2021/12/06 06:37:33;;;;;;;0.70;0.70;;;7.10;59.70;;;;;;4958299;28;20204;-63
2021/12/06 06:39:59;;;;;;;0.77;0.77;;;7.10;60.00;;;;;;4958121;28;20292;-61
2021/12/06 06:42:27;;;;;;;2.17;0.70;;;7.10;59.70;;;;;;4958283;28;20188;-59
2021/12/06 06:44:54;;;;;;;1.13;1.02;;;7.10;60.00;;;;;;4957670;28;20216;-68
2021/12/06 06:47:20;;;;;;;1.20;1.00;;;7.10;60.80;;;;;;4958075;28;20308;-67
2021/12/06 06:49:47;;;;;;;0.70;0.70;;;7.10;60.30;;;;;;4957918;28;20670;-64
2021/12/06 06:52:13;;;;;;;1.27;1.02;;;7.10;60.80;;;;;;4957632;28;20207;-64
2021/12/06 06:54:39;;;;;;;1.85;1.00;;;6.90;60.70;;;;;;4958040;28;20188;-62
2021/12/06 06:57:05;;;;;;;1.80;1.00;;;6.90;61.50;;;;;;4957681;28;20181;-68
2021/12/06 06:59:31;;;;;;;2.08;1.42;;;6.90;61.60;;;;;;4957807;28;20197;-63
2021/12/06 07:01:57;;;;;;;1.45;1.00;;;7.00;61.30;;;;;;4958213;29;20326;-73
2021/12/06 07:04:23;;;;;;;14.82;5.00;;;6.90;61.20;;;;;;4958897;28;20549;-65
2021/12/06 07:06:49;;;;;;;14.30;6.97;;;7.60;76.10;;;;;;4958287;28;21062;-62
2021/12/06 07:09:15;;;;;;;6.32;3.67;;;8.00;69.00;;;;;;4957402;28;20323;-61
2021/12/06 07:11:44;;;;;;;6.00;3.63;;;8.10;64.10;;;;;;4957430;28;20256;-58
2021/12/06 07:14:10;;;;;;;5.30;2.97;;;8.50;64.70;;;;;;4957579;28;20633;-64
2021/12/06 07:16:36;;;;;;;3.95;1.90;;;8.70;60.30;;;;;;4957266;28;20633;-63
2021/12/06 07:19:02;;;;;;;2.00;1.40;;;8.80;59.00;;;;;;4957394;28;20200;-63
2021/12/06 07:21:27;;;;;;;5.65;3.03;;;8.90;58.00;;;;;;4957166;28;20637;-61
2021/12/06 07:23:53;;;;;;;4.78;2.38;;;9.00;60.60;;;;;;4957249;28;20187;-63
2021/12/06 07:26:20;;;;;;;6.63;3.80;;;9.30;59.00;;;;;;4957413;28;20217;-62
2021/12/06 07:28:48;;;;;;;1.88;1.23;;;9.50;59.20;;;;;;4956940;28;20231;-62
2021/12/06 07:31:14;;;;;;;2.10;1.13;;;9.50;55.30;;;;;;4957137;28;20181;-66
2021/12/06 07:33:46;;;;;;;2.20;1.05;;;9.30;55.60;;;;;;4957282;28;20173;-69
2021/12/06 07:36:12;;;;;;;1.80;1.35;;;8.60;55.20;;;;;;4957184;28;20177;-75
2021/12/06 07:38:38;;;;;;;0.90;0.85;;;8.10;57.60;;;;;;4956481;28;20216;-79
2021/12/06 07:41:07;;;;;;;2.30;1.52;;;8.00;58.20;;;;;;4955759;28;20235;-77
2021/12/06 07:43:34;;;;;;;2.70;1.40;;;7.80;57.60;;;;;;4957322;28;20197;-72
2021/12/06 07:46:00;;;;;;;2.33;1.48;;;7.60;58.80;;;;;;4956705;28;20255;-60
2021/12/06 07:48:26;;;;;;;2.60;1.80;;;7.30;59.00;;;;;;4956701;28;20217;-63
2021/12/06 07:50:51;;;;;;;2.90;1.80;;;7.30;60.00;;;;;;4956824;28;20638;-71
2021/12/06 07:53:17;;;;;;;2.83;1.50;;;7.40;60.20;;;;;;4956124;28;20308;-68
2021/12/06 07:55:43;;;;;;;3.22;2.00;;;7.50;59.50;;;;;;4956582;28;20331;-64
2021/12/06 07:58:09;;;;;;;1.80;1.10;;;7.60;59.40;;;;;;4956318;28;20192;-69
2021/12/06 08:00:46;;;;;;;2.20;1.55;;;7.60;58.90;;;;;;4956763;28;20664;-72
2021/12/06 08:03:13;;;;;;;2.25;1.10;;;7.60;59.00;;;;;;4956581;28;20177;-67
2021/12/06 08:05:42;;;;;;;2.63;1.30;;;7.60;58.70;;;;;;4956408;28;20708;-71
2021/12/06 08:08:12;;;;;;;1.33;1.13;;;7.80;58.20;;;;;;4956815;28;20220;-78
2021/12/06 08:10:45;;;;;;;2.85;1.20;;;7.90;57.90;;;;;;4955042;29;20248;-76
2021/12/06 08:13:16;;;;;;;1.13;1.02;;;8.00;57.50;;;;;;4956588;28;20177;-68
2021/12/06 08:15:43;;;;;;;1.85;1.10;;;8.00;57.00;;;;;;4956177;28;20177;-80
2021/12/06 08:18:09;;;;;;;2.67;1.13;;;8.10;57.00;;;;;;4956239;28;20681;-63
2021/12/06 08:20:36;;;;;;;1.40;0.80;;;8.20;56.80;;;;;;4956088;28;20667;-71
2021/12/06 08:23:02;;;;;;;1.20;0.98;;;8.20;56.40;;;;;;4956237;28;20224;-73
2021/12/06 08:25:28;;;;;;;1.15;0.98;;;8.10;56.40;;;;;;4956061;28;20304;-64
2021/12/06 08:27:54;;;;;;;2.45;0.93;;;8.30;56.10;;;;;;4973491;28;20660;-65
2021/12/06 08:30:22;;;;;;;2.63;1.10;;;8.40;55.60;;;;;;4974121;28;20212;-67
2021/12/06 08:32:54;;;;;;;1.15;1.05;;;8.10;55.40;;;;;;4974144;28;20223;-68
2021/12/06 08:35:20;;;;;;;1.20;1.10;;;8.10;55.50;;;;;;4971782;28;20199;-67
2021/12/06 08:37:46;;;;;;;1.83;1.08;;;8.20;55.80;;;;;;4975113;28;20184;-63
2021/12/06 08:40:16;;;;;;;1.65;0.77;;;8.10;55.60;;;;;;4975297;28;20581;-66
2021/12/06 08:42:42;;;;;;;1.15;0.90;;;8.10;55.60;;;;;;4975159;28;20255;-63
2021/12/06 08:45:10;;;;;;;2.60;0.98;;;8.20;55.30;;;;;;4975103;28;20212;-61
2021/12/06 08:47:36;;;;;;;1.52;0.98;;;8.40;55.60;;;;;;4954838;28;20680;-60
2021/12/06 08:50:04;;;;;;;1.88;0.80;;;8.50;54.80;;;;;;4954805;28;20250;-67
2021/12/06 08:52:29;;;;;;;27.40;7.50;;;8.60;54.70;;;;;;4954434;28;20264;-65
2021/12/06 08:54:55;;;;;;;1.60;1.00;;;8.80;56.00;;;;;;4954546;28;20268;-62
2021/12/06 08:57:21;;;;;;;1.77;0.90;;;8.80;54.40;;;;;;4958860;28;20368;-65
2021/12/06 08:59:47;;;;;;;1.05;0.70;;;8.80;53.70;;;;;;4973644;28;20201;-62
2021/12/06 09:02:13;;;;;;;3.97;1.23;;;8.70;53.90;;;;;;4976704;28;20177;-63
2021/12/06 09:04:39;;;;;;;3.38;0.82;;;8.70;54.40;;;;;;4977317;28;20188;-61
2021/12/06 09:07:13;;;;;;;1.17;0.90;;;8.70;54.20;;;;;;4973284;28;20195;-69
2021/12/06 09:09:46;;;;;;;1.83;0.90;;;8.70;54.80;;;;;;4975250;28;20231;-69
2021/12/06 09:12:24;;;;;;;2.30;0.93;;;8.80;54.40;;;;;;4971633;28;20563;-66
2021/12/06 09:14:52;;;;;;;3.15;1.50;;;8.90;54.00;;;;;;4973068;28;20191;-64
2021/12/06 09:17:18;;;;;;;14.80;3.45;;;8.70;53.70;;;;;;4972993;28;20172;-63
2021/12/06 09:19:45;;;;;;;21.38;6.25;;;8.90;55.00;;;;;;4972882;28;20212;-61
2021/12/06 09:22:12;;;;;;;41.83;10.05;;;9.00;56.10;;;;;;4973147;28;20194;-60
2021/12/06 09:24:38;;;;;;;13.65;4.53;;;9.20;55.50;;;;;;4971713;28;20638;-59
2021/12/06 09:27:04;;;;;;;5.55;1.77;;;9.10;54.70;;;;;;4974029;28;20196;-58
2021/12/06 09:29:32;;;;;;;12.63;3.40;;;8.90;55.10;;;;;;4974414;28;20192;-57
2021/12/06 09:31:59;;;;;;;0.90;0.80;;;8.90;55.90;;;;;;4974469;28;20199;-58
2021/12/06 09:34:27;;;;;;;0.90;0.73;;;8.80;54.50;;;;;;4974683;28;20231;-60
2021/12/06 09:36:54;;;;;;;4.60;1.70;;;8.80;55.40;;;;;;4974162;28;20184;-61
2021/12/06 09:39:20;;;;;;;4.47;1.42;;;8.80;56.10;;;;;;4974131;28;20355;-62
2021/12/06 09:41:48;;;;;;;3.55;1.40;;;8.90;55.50;;;;;;4969146;28;20275;-60
2021/12/06 09:44:14;;;;;;;2.17;0.90;;;8.90;55.70;;;;;;4971478;28;20191;-64
2021/12/06 09:46:42;;;;;;;1.40;0.98;;;8.90;55.60;;;;;;4971995;28;20216;-69
2021/12/06 09:49:12;;;;;;;1.05;0.82;;;8.90;54.80;;;;;;4974073;28;20200;-61
2021/12/06 09:51:40;;;;;;;4.22;1.10;;;8.90;55.40;;;;;;4976714;28;20263;-68
2021/12/06 09:54:07;;;;;;;1.83;0.93;;;8.80;54.40;;;;;;4977977;28;20208;-65
2021/12/06 09:56:37;;;;;;;1.58;0.70;;;8.90;55.00;;;;;;4977087;28;20180;-68
2021/12/06 09:59:06;;;;;;;2.50;1.00;;;8.90;54.50;;;;;;4973082;28;20645;-80
2021/12/06 10:01:39;;;;;;;2.72;0.98;;;8.80;54.50;;;;;;4972692;28;20187;-72
2021/12/06 10:04:08;;;;;;;4.22;1.45;;;8.80;54.80;;;;;;4973256;28;20180;-63
2021/12/06 10:06:34;;;;;;;1.35;0.90;;;9.00;55.20;;;;;;4973732;28;20716;-75
2021/12/06 10:09:04;;;;;;;0.65;0.60;;;9.00;54.20;;;;;;4973939;28;20235;-75
2021/12/06 10:11:30;;;;;;;3.55;0.93;;;9.10;53.70;;;;;;4974057;28;20671;-65
2021/12/06 10:13:57;;;;;;;1.73;1.08;;;9.20;53.50;;;;;;4973930;28;20180;-70
2021/12/06 10:16:23;;;;;;;1.55;0.95;;;9.20;54.30;;;;;;4973170;28;20183;-69
2021/12/06 10:18:52;;;;;;;2.72;1.17;;;9.30;53.20;;;;;;4972925;28;20216;-81
2021/12/06 10:21:19;;;;;;;0.93;0.63;;;9.10;53.00;;;;;;4973009;28;20176;-71
2021/12/06 10:24:01;;;;;;;1.48;0.63;;;9.10;52.70;;;;;;4971109;28;20218;-73
2021/12/06 10:26:30;;;;;;;0.68;0.68;;;9.00;53.40;;;;;;4967887;28;20252;-70
2021/12/06 10:29:07;;;;;;;1.33;1.10;;;9.10;52.80;;;;;;4972803;28;20207;-77
2021/12/06 10:31:33;;;;;;;2.20;1.00;;;9.10;53.00;;;;;;4967824;28;20180;-74
2021/12/06 10:33:59;;;;;;;0.95;0.70;;;9.10;52.50;;;;;;4973905;28;20183;-68
2021/12/06 10:36:27;;;;;;;1.67;1.10;;;9.20;52.60;;;;;;4973922;28;20168;-69
2021/12/06 10:39:01;;;;;;;0.85;0.77;;;9.30;52.30;;;;;;4973644;28;20660;-69
2021/12/06 10:41:28;;;;;;;1.25;0.85;;;9.30;52.30;;;;;;4973574;28;20168;-64
2021/12/06 10:43:55;;;;;;;1.17;0.73;;;9.60;51.70;;;;;;4974008;28;20240;-72
2021/12/06 10:46:23;;;;;;;2.08;1.00;;;9.40;51.10;;;;;;4974162;28;20244;-68
2021/12/06 10:48:50;;;;;;;4.03;1.08;;;9.30;51.30;;;;;;4973743;28;20678;-70
2021/12/06 10:51:18;;;;;;;1.17;0.90;;;9.30;52.30;;;;;;4971583;28;20203;-72
2021/12/06 10:53:56;;;;;;;1.60;0.85;;;9.40;51.70;;;;;;4972987;28;20271;-71
2021/12/06 10:56:31;;;;;;;1.75;1.00;;;9.50;51.60;;;;;;4972093;28;20187;-67
2021/12/06 10:58:57;;;;;;;2.28;1.02;;;9.50;52.20;;;;;;4971429;28;20204;-75
2021/12/06 11:01:32;;;;;;;1.35;0.70;;;9.70;51.20;;;;;;4972437;28;20212;-74
2021/12/06 11:03:59;;;;;;;0.70;0.70;;;9.60;50.30;;;;;;4972744;28;20175;-73
2021/12/06 11:06:31;;;;;;;1.38;0.80;;;9.60;50.60;;;;;;4973249;28;20212;-73
2021/12/06 11:08:59;;;;;;;2.78;0.75;;;9.70;50.50;;;;;;4973586;28;20246;-75
2021/12/06 11:11:34;;;;;;;1.20;0.90;;;9.80;49.40;;;;;;4973413;28;20509;-79
2021/12/06 11:14:09;;;;;;;0.40;0.40;;;9.70;50.80;;;;;;4974242;28;20706;-79
2021/12/06 11:16:41;;;;;;;1.15;0.70;;;9.80;50.40;;;;;;4976987;28;20178;-77
2021/12/06 11:19:12;;;;;;;1.17;0.63;;;9.60;50.00;;;;;;4976835;28;20660;-78
2021/12/06 11:21:45;;;;;;;1.15;0.68;;;9.60;49.90;;;;;;4976821;28;20180;-78
2021/12/06 11:24:39;;;;;;;1.58;0.70;;;9.70;50.60;;;;;;4976689;28;20251;-69
2021/12/06 11:27:12;;;;;;;1.38;0.70;;;9.80;50.60;;;;;;4976268;28;20196;-73
2021/12/06 11:29:39;;;;;;;1.42;1.00;;;9.70;50.30;;;;;;4976569;28;20199;-74
2021/12/06 11:32:31;;;;;;;0.60;0.60;;;9.80;49.60;;;;;;4976250;28;20208;-69
2021/12/06 11:35:08;;;;;;;0.63;0.50;;;9.90;49.30;;;;;;4976199;28;20183;-78
2021/12/06 11:37:42;;;;;;;0.50;0.50;;;10.00;49.30;;;;;;4976571;28;20562;-69
2021/12/06 11:40:24;;;;;;;1.05;0.90;;;10.00;49.00;;;;;;4976436;28;20290;-63
2021/12/06 11:43:03;;;;;;;1.38;0.65;;;10.10;48.90;;;;;;4976869;28;20176;-72
2021/12/06 11:45:46;;;;;;;2.20;0.90;;;10.00;48.70;;;;;;4976134;28;20219;-68
2021/12/06 11:48:29;;;;;;;1.27;0.77;;;9.80;49.00;;;;;;4976035;28;20204;-66
2021/12/06 11:51:02;;;;;;;0.77;0.75;;;9.80;48.60;;;;;;4970790;28;20426;-70
2021/12/06 11:53:37;;;;;;;1.30;1.02;;;9.80;48.60;;;;;;4964113;28;20585;-71
2021/12/06 11:56:10;;;;;;;1.60;0.85;;;9.70;49.20;;;;;;4975096;28;20638;-76
2021/12/06 11:58:47;;;;;;;0.80;0.80;;;9.70;50.00;;;;;;4974897;28;20204;-72
2021/12/06 12:01:23;;;;;;;1.67;0.80;;;10.00;49.80;;;;;;4974842;28;20187;-72
2021/12/06 12:03:55;;;;;;;1.25;0.57;;;10.10;49.40;;;;;;4974810;28;20648;-65
2021/12/06 12:06:20;;;;;;;2.05;0.95;;;10.30;48.20;;;;;;4974235;28;20227;-70
2021/12/06 12:08:46;;;;;;;2.05;0.90;;;10.20;48.40;;;;;;4964008;28;20700;-69
2021/12/06 12:11:12;;;;;;;2.53;0.95;;;10.20;48.50;;;;;;4967842;28;20649;-72
2021/12/06 12:13:37;;;;;;;1.33;0.88;;;10.20;48.90;;;;;;4964386;28;20182;-71
2021/12/06 12:16:10;;;;;;;2.38;0.93;;;10.30;48.90;;;;;;4974836;28;20191;-76
2021/12/06 12:18:39;;;;;;;1.50;1.10;;;10.30;48.30;;;;;;4974797;28;20224;-70
2021/12/06 12:21:07;;;;;;;2.17;0.70;;;10.20;48.20;;;;;;4974286;28;20184;-70
2021/12/06 12:23:34;;;;;;;1.85;1.02;;;10.30;48.10;;;;;;4974649;28;20177;-75
2021/12/06 12:26:10;;;;;;;3.75;1.10;;;10.30;48.40;;;;;;4961483;28;20232;-72
2021/12/06 12:28:48;;;;;;;1.20;0.90;;;10.30;48.20;;;;;;4974467;28;20698;-76
2021/12/06 12:31:14;;;;;;;1.08;0.90;;;10.40;47.70;;;;;;4961619;28;20227;-68
2021/12/06 12:33:40;;;;;;;4.00;1.52;;;10.20;47.30;;;;;;4973961;28;20597;-68
2021/12/06 12:36:13;;;;;;;3.53;0.90;;;10.10;48.00;;;;;;4974129;28;20648;-75
2021/12/06 12:38:43;;;;;;;1.58;0.70;;;10.00;48.40;;;;;;4974041;28;20235;-72
2021/12/06 12:41:12;;;;;;;0.70;0.70;;;10.00;48.20;;;;;;4974453;28;20511;-69
2021/12/06 12:43:53;;;;;;;2.00;1.20;;;10.20;47.80;;;;;;4957823;28;20184;-71
2021/12/06 12:46:22;;;;;;;1.45;0.90;;;10.10;48.00;;;;;;4954560;28;20680;-66
2021/12/06 12:48:56;;;;;;;0.88;0.88;;;10.10;47.80;;;;;;4956812;28;20329;-62
2021/12/06 12:51:30;;;;;;;1.02;0.90;;;10.20;47.30;;;;;;4955304;28;20185;-64
2021/12/06 12:54:28;;;;;;;3.03;1.08;;;10.10;47.50;;;;;;4955674;28;20176;-77
2021/12/06 12:56:57;;;;;;;1.02;0.75;;;10.10;47.70;;;;;;4960819;28;20192;-68
2021/12/06 12:59:26;;;;;;;1.65;1.00;;;10.10;47.50;;;;;;4957811;28;20283;-61
2021/12/06 13:02:12;;;;;;;3.08;1.20;;;10.00;48.20;;;;;;4955338;28;20259;-68
2021/12/06 13:04:59;;;;;;;2.92;1.15;;;10.00;47.90;;;;;;4955805;28;20188;-68
2021/12/06 13:07:29;;;;;;;2.58;1.20;;;10.10;47.40;;;;;;4955472;28;20177;-63
2021/12/06 13:09:57;;;;;;;1.92;1.00;;;10.10;47.60;;;;;;4956235;28;20286;-63
2021/12/06 13:12:27;;;;;;;1.38;1.00;;;10.10;47.70;;;;;;4960037;28;20181;-59
2021/12/06 13:14:57;;;;;;;1.75;1.05;;;10.20;47.50;;;;;;4958624;28;20181;-73
2021/12/06 13:17:40;;;;;;;3.33;1.50;;;10.10;46.60;;;;;;4959501;28;20268;-64
2021/12/06 13:20:10;;;;;;;1.85;1.25;;;10.10;47.00;;;;;;4969018;28;20211;-68
2021/12/06 15:03:48;;;;;;;2.42;1.50;;;8.80;51.90;;;;;;5081108;23;20246;-66